createdAt,value
2022-11-23T00:02:09.127Z,93653.69
2022-11-23T00:04:38.334Z,93656.94
2022-11-23T00:07:10.820Z,93655.28
2022-11-23T00:09:40.773Z,93655.25
2022-11-23T00:12:11.851Z,93657.13
2022-11-23T00:14:41.070Z,93670.84
2022-11-23T00:17:28.515Z,93663.97
2022-11-23T00:19:57.694Z,93658.53
2022-11-23T00:22:26.999Z,93649.63
2022-11-23T00:24:56.192Z,93646.81
2022-11-23T00:27:26.897Z,93660.31
2022-11-23T00:29:56.083Z,93637.31
2022-11-23T00:32:25.317Z,93637.78
2022-11-23T00:34:54.337Z,93640.47
2022-11-23T00:37:23.488Z,93649.88
2022-11-23T00:39:52.706Z,93646.56
2022-11-23T00:42:21.837Z,93642.91
2022-11-23T00:44:52.598Z,93648.28
2022-11-23T00:47:21.816Z,93649.75
2022-11-23T00:49:51.073Z,93656.03
2022-11-23T00:52:20.201Z,93656.53
2022-11-23T00:54:49.827Z,93653.16
2022-11-23T00:57:19.110Z,93644.50
2022-11-23T00:59:48.303Z,93635.38
2022-11-23T01:02:18.835Z,93629.84
2022-11-23T01:04:48.088Z,93630.38
2022-11-23T01:07:17.237Z,93632.81
2022-11-23T01:09:46.375Z,93630.50
2022-11-23T01:12:15.542Z,93630.22
2022-11-23T01:14:44.643Z,93621.88
2022-11-23T01:17:13.869Z,93620.53
2022-11-23T01:19:44.497Z,93606.88
2022-11-23T01:22:15.205Z,93605.91
2022-11-23T01:24:44.820Z,93589.78
2022-11-23T01:27:29.284Z,93581.09
2022-11-23T01:30:00.674Z,93593.75
2022-11-23T01:32:50.297Z,93594.81
2022-11-23T01:35:22.099Z,93595.06
2022-11-23T01:37:51.487Z,93589.88
2022-11-23T01:40:20.845Z,93593.59
2022-11-23T01:42:54.614Z,93587.53
2022-11-23T01:45:37.647Z,93583.06
2022-11-23T01:48:13.062Z,93588.09
2022-11-23T01:50:45.012Z,93583.81
2022-11-23T01:53:15.035Z,93580.19
2022-11-23T01:55:47.627Z,93582.28
2022-11-23T01:58:20.249Z,93590.66
2022-11-23T02:00:50.496Z,93576.69
2022-11-23T02:03:20.186Z,93593.28
2022-11-23T02:05:54.653Z,93601.22
2022-11-23T02:08:24.339Z,93586.44
2022-11-23T02:10:54.239Z,93589.38
2022-11-23T02:13:26.663Z,93585.75
2022-11-23T02:16:01.392Z,93577.56
2022-11-23T02:18:32.762Z,93579.34
2022-11-23T02:21:04.694Z,93575.72
2022-11-23T02:23:42.451Z,93586.28
2022-11-23T02:26:19.918Z,93578.81
2022-11-23T02:28:56.985Z,93570.63
2022-11-23T02:31:41.191Z,93561.69
2022-11-23T02:34:10.709Z,93554.88
2022-11-23T02:36:42.705Z,93546.22
2022-11-23T02:39:14.326Z,93547.53
2022-11-23T02:41:47.212Z,93551.69
2022-11-23T02:44:33.599Z,93538.13
2022-11-23T02:47:03.215Z,93544.25
2022-11-23T02:49:34.515Z,93537.97
2022-11-23T02:52:04.788Z,93535.88
2022-11-23T02:54:33.886Z,93522.94
2022-11-23T02:57:05.524Z,93504.00
2022-11-23T02:59:36.020Z,93498.72
2022-11-23T03:02:06.897Z,93501.38
2022-11-23T03:04:38.021Z,93505.59
2022-11-23T03:07:07.287Z,93526.19
2022-11-23T03:09:36.940Z,93534.53
2022-11-23T03:12:08.157Z,93530.19
2022-11-23T03:14:39.023Z,93528.22
2022-11-23T03:17:08.157Z,93529.88
2022-11-23T03:19:43.212Z,93533.91
2022-11-23T03:22:13.694Z,93532.13
2022-11-23T03:24:42.851Z,93524.97
2022-11-23T03:27:19.067Z,93522.56
2022-11-23T03:29:49.253Z,93531.25
2022-11-23T03:32:22.061Z,93531.59
2022-11-23T03:34:55.371Z,93523.44
2022-11-23T03:37:25.652Z,93516.84
2022-11-23T03:39:55.483Z,93519.97
2022-11-23T03:42:26.530Z,93530.03
2022-11-23T03:44:55.963Z,93534.75
2022-11-23T03:47:25.493Z,93533.97
2022-11-23T03:49:54.751Z,93534.78
2022-11-23T03:52:24.212Z,93533.22
2022-11-23T03:54:53.604Z,93533.78
2022-11-23T03:57:23.244Z,93537.47
2022-11-23T03:59:54.040Z,93537.78
2022-11-23T04:02:24.628Z,93545.56
2022-11-23T04:05:03.832Z,93535.41
2022-11-23T04:07:56.912Z,93537.28
2022-11-23T04:10:27.999Z,93547.03
2022-11-23T04:13:38.812Z,93549.09
2022-11-23T04:16:10.380Z,93552.81
2022-11-23T04:18:42.257Z,93555.16
2022-11-23T04:21:12.835Z,93548.09
2022-11-23T04:23:49.276Z,93545.94
2022-11-23T04:26:18.790Z,93541.22
2022-11-23T04:28:49.613Z,93546.25
2022-11-23T04:31:20.299Z,93544.94
2022-11-23T04:34:11.016Z,93553.94
2022-11-23T04:36:41.415Z,93547.09
2022-11-23T04:39:13.438Z,93553.66
2022-11-23T04:42:03.449Z,93553.91
2022-11-23T04:44:33.819Z,93565.47
2022-11-23T04:47:08.035Z,93556.53
2022-11-23T04:49:39.352Z,93567.34
2022-11-23T04:52:08.610Z,93559.38
2022-11-23T04:54:44.329Z,93569.44
2022-11-23T04:57:14.146Z,93561.81
2022-11-23T04:59:45.014Z,93548.88
2022-11-23T05:02:15.739Z,93546.25
2022-11-23T05:05:11.789Z,93535.66
2022-11-23T05:07:41.104Z,93545.94
2022-11-23T05:10:12.013Z,93541.19
2022-11-23T05:12:42.064Z,93539.63
2022-11-23T05:15:14.840Z,93550.66
2022-11-23T05:17:45.736Z,93552.81
2022-11-23T05:20:23.468Z,93551.69
2022-11-23T05:22:52.780Z,93555.94
2022-11-23T05:25:25.578Z,93555.44
2022-11-23T05:28:11.335Z,93563.03
2022-11-23T05:30:45.908Z,93551.13
2022-11-23T05:33:16.627Z,93554.00
2022-11-23T05:35:46.442Z,93546.91
2022-11-23T05:38:37.950Z,93552.09
2022-11-23T05:41:13.364Z,93543.66
2022-11-23T05:43:44.977Z,93538.69
2022-11-23T05:46:19.516Z,93559.00
2022-11-23T05:48:50.509Z,93556.84
2022-11-23T05:51:19.719Z,93550.53
2022-11-23T05:53:51.061Z,93556.06
2022-11-23T05:56:38.804Z,93537.84
2022-11-23T05:59:15.508Z,93537.34
2022-11-23T06:01:48.765Z,93539.19
2022-11-23T06:04:27.315Z,93538.31
2022-11-23T06:07:01.327Z,93537.41
2022-11-23T06:09:38.977Z,93531.25
2022-11-23T06:12:11.792Z,93528.69
2022-11-23T06:14:41.440Z,93544.75
2022-11-23T06:17:10.693Z,93532.63
2022-11-23T06:19:46.941Z,93541.31
2022-11-23T06:22:16.762Z,93557.38
2022-11-23T06:24:58.981Z,93563.44
2022-11-23T06:27:42.187Z,93567.66
2022-11-23T06:30:18.988Z,93570.00
2022-11-23T06:32:50.799Z,93571.41
2022-11-23T06:35:23.245Z,93563.28
2022-11-23T06:37:54.948Z,93556.66
2022-11-23T06:40:25.878Z,93554.06
2022-11-23T06:43:00.490Z,93554.09
2022-11-23T06:45:44.248Z,93551.75
2022-11-23T06:48:16.796Z,93555.44
2022-11-23T06:50:52.327Z,93561.56
2022-11-23T06:53:24.310Z,93559.16
2022-11-23T06:56:01.071Z,93571.00
2022-11-23T06:58:32.502Z,93560.56
2022-11-23T07:01:03.917Z,93562.16
2022-11-23T07:03:39.034Z,93555.31
2022-11-23T07:06:20.793Z,93553.47
2022-11-23T07:08:51.499Z,93551.44
2022-11-23T07:11:41.179Z,93553.78
2022-11-23T07:14:10.489Z,93553.03
2022-11-23T07:16:42.700Z,93558.94
2022-11-23T07:19:12.671Z,93552.69
2022-11-23T07:21:43.597Z,93558.38
2022-11-23T07:24:14.227Z,93569.16
2022-11-23T07:26:43.539Z,93562.66
2022-11-23T07:29:13.117Z,93566.34
2022-11-23T07:31:42.493Z,93562.13
2022-11-23T07:34:12.039Z,93563.50
2022-11-23T07:36:42.847Z,93554.56
2022-11-23T07:39:13.141Z,93549.78
2022-11-23T07:41:42.641Z,93559.53
2022-11-23T07:44:19.254Z,93554.63
2022-11-23T07:46:52.139Z,93550.44
2022-11-23T07:49:21.732Z,93569.03
2022-11-23T07:51:54.021Z,93562.28
2022-11-23T07:54:23.908Z,93565.59
2022-11-23T07:56:53.178Z,93570.81
2022-11-23T07:59:22.395Z,93571.75
2022-11-23T08:01:57.091Z,93569.28
2022-11-23T08:04:28.896Z,93570.41
2022-11-23T08:07:01.119Z,93576.16
2022-11-23T08:09:31.670Z,93584.44
2022-11-23T08:12:06.403Z,93572.41
2022-11-23T08:14:36.261Z,93564.88
2022-11-23T08:17:05.725Z,93568.53
2022-11-23T08:19:35.221Z,93564.97
2022-11-23T08:22:06.068Z,93564.09
2022-11-23T08:24:35.534Z,93575.56
2022-11-23T08:27:05.086Z,93573.88
2022-11-23T08:29:34.425Z,93572.56
2022-11-23T08:32:04.024Z,93580.44
2022-11-23T08:34:33.429Z,93576.47
2022-11-23T08:37:03.387Z,93574.34
2022-11-23T08:39:35.311Z,93577.50
2022-11-23T08:42:15.660Z,93581.94
2022-11-23T08:44:44.891Z,93577.53
2022-11-23T08:47:14.145Z,93587.53
2022-11-23T08:49:43.709Z,93578.63
2022-11-23T08:52:13.681Z,93573.66
2022-11-23T08:54:44.212Z,93581.59
2022-11-23T08:57:13.468Z,93571.34
2022-11-23T08:59:42.721Z,93572.38
2022-11-23T09:02:15.371Z,93576.53
2022-11-23T09:04:44.711Z,93574.41
2022-11-23T09:07:13.977Z,93575.03
2022-11-23T09:09:44.644Z,93576.34
2022-11-23T09:12:13.969Z,93573.09
2022-11-23T09:14:45.911Z,93568.94
2022-11-23T09:17:15.085Z,93568.00
2022-11-23T09:19:44.265Z,93568.00
2022-11-23T09:22:13.614Z,93557.47
2022-11-23T09:24:44.234Z,93560.91
2022-11-23T09:27:13.670Z,93551.97
2022-11-23T09:29:46.242Z,93552.41
2022-11-23T09:32:38.413Z,93556.34
2022-11-23T09:35:08.508Z,93550.38
2022-11-23T09:37:37.883Z,93542.03
2022-11-23T09:40:11.548Z,93544.19
2022-11-23T09:43:06.686Z,93550.53
2022-11-23T09:45:44.420Z,93538.97
2022-11-23T09:48:47.868Z,93545.41
2022-11-23T09:51:19.047Z,93546.56
2022-11-23T09:53:52.429Z,93543.25
2022-11-23T09:56:27.634Z,93542.91
2022-11-23T09:58:59.652Z,93540.97
2022-11-23T10:01:30.718Z,93548.69
2022-11-23T10:04:00.668Z,93545.50
2022-11-23T10:06:31.893Z,93534.13
2022-11-23T10:09:38.412Z,93527.97
2022-11-23T10:12:24.569Z,93524.19
2022-11-23T10:15:04.668Z,93522.25
2022-11-23T10:18:00.149Z,93513.59
2022-11-23T10:20:52.748Z,93523.38
2022-11-23T10:23:36.008Z,93525.97
2022-11-23T10:26:05.136Z,93526.25
2022-11-23T10:28:36.644Z,93531.06
2022-11-23T10:31:14.561Z,93530.72
2022-11-23T10:33:54.832Z,93527.19
2022-11-23T10:36:24.252Z,93531.28
2022-11-23T10:38:59.523Z,93519.03
2022-11-23T10:41:31.241Z,93513.59
2022-11-23T10:44:08.530Z,93512.94
2022-11-23T10:46:41.317Z,93500.53
2022-11-23T10:49:17.525Z,93504.69
2022-11-23T10:52:03.912Z,93502.28
2022-11-23T10:54:37.110Z,93492.06
2022-11-23T10:57:32.020Z,93498.25
2022-11-23T11:00:05.001Z,93497.38
2022-11-23T11:02:40.524Z,93506.25
2022-11-23T11:08:29.397Z,93498.47
2022-11-23T11:11:10.967Z,93494.19
2022-11-23T11:13:44.947Z,93482.66
2022-11-23T11:16:22.816Z,93491.72
2022-11-23T11:18:52.074Z,93493.81
2022-11-23T11:21:23.612Z,93497.19
2022-11-23T11:23:55.648Z,93487.66
2022-11-23T11:27:00.443Z,93489.25
2022-11-23T11:29:39.227Z,93494.78
2022-11-23T11:32:16.038Z,93495.69
2022-11-23T11:34:50.270Z,93492.22
2022-11-23T11:37:25.389Z,93491.00
2022-11-23T11:39:59.443Z,93494.13
2022-11-23T11:42:36.572Z,93493.19
2022-11-23T11:45:08.453Z,93494.59
2022-11-23T11:47:46.163Z,93502.63
2022-11-23T11:50:30.029Z,93502.34
2022-11-23T11:53:09.532Z,93493.78
2022-11-23T11:55:52.738Z,93485.44
2022-11-23T11:58:25.912Z,93475.97
2022-11-23T12:01:01.416Z,93483.28
2022-11-23T12:03:43.180Z,93480.47
2022-11-23T12:06:26.307Z,93492.41
2022-11-23T12:09:02.612Z,93477.97
2022-11-23T12:11:31.961Z,93480.47
2022-11-23T12:14:03.636Z,93477.47
2022-11-23T12:16:41.434Z,93477.97
2022-11-23T12:19:19.482Z,93453.63
2022-11-23T12:22:36.506Z,93453.59
2022-11-23T12:25:16.974Z,93461.66
2022-11-23T12:27:56.007Z,93461.13
2022-11-23T12:30:30.933Z,93463.16
2022-11-23T12:33:26.397Z,93464.47
2022-11-23T12:36:23.785Z,93465.28
2022-11-23T12:38:57.964Z,93475.25
2022-11-23T12:41:39.684Z,93474.00
2022-11-23T12:44:38.959Z,93469.44
2022-11-23T12:47:16.914Z,93474.78
2022-11-23T12:49:52.803Z,93481.59
2022-11-23T12:52:35.572Z,93480.50
2022-11-23T12:55:19.871Z,93479.75
2022-11-23T12:57:57.006Z,93480.09
2022-11-23T13:00:34.098Z,93484.72
2022-11-23T13:03:54.094Z,93487.06
2022-11-23T13:07:12.304Z,93480.88
2022-11-23T13:09:59.342Z,93482.91
2022-11-23T13:13:15.894Z,93476.59
2022-11-23T13:16:01.271Z,93492.81
2022-11-23T13:18:48.153Z,93494.19
2022-11-23T13:21:30.643Z,93490.72
2022-11-23T13:24:00.062Z,93492.22
2022-11-23T13:26:33.055Z,93496.88
2022-11-23T13:29:45.479Z,93501.66
2022-11-23T13:32:36.147Z,93502.19
2022-11-23T13:35:06.299Z,93508.94
2022-11-23T13:38:23.609Z,93507.66
2022-11-23T13:40:53.049Z,93509.47
2022-11-23T13:43:27.127Z,93507.16
2022-11-23T13:46:25.295Z,93505.34
2022-11-23T13:48:57.505Z,93506.06
2022-11-23T13:51:30.436Z,93513.91
2022-11-23T13:54:03.646Z,93511.34
2022-11-23T13:56:33.625Z,93529.56
2022-11-23T13:59:32.500Z,93526.94
2022-11-23T14:02:27.206Z,93527.16
2022-11-23T14:05:29.719Z,93532.22
2022-11-23T14:08:01.939Z,93535.09
2022-11-23T14:10:34.127Z,93525.44
2022-11-23T14:13:08.693Z,93531.78
2022-11-23T14:15:42.535Z,93530.69
2022-11-23T14:18:36.028Z,93535.44
2022-11-23T14:21:17.509Z,93546.59
2022-11-23T14:24:21.013Z,93542.34
2022-11-23T14:27:24.117Z,93540.38
2022-11-23T14:30:17.777Z,93549.75
2022-11-23T14:33:04.328Z,93545.56
2022-11-23T14:35:43.685Z,93555.19
2022-11-23T14:38:43.747Z,93557.56
2022-11-23T14:41:18.905Z,93562.91
2022-11-23T14:43:49.458Z,93557.81
2022-11-23T14:46:21.441Z,93557.75
2022-11-23T14:48:52.869Z,93561.78
2022-11-23T14:51:26.859Z,93562.22
2022-11-23T14:53:58.548Z,93562.31
2022-11-23T14:56:35.162Z,93569.63
2022-11-23T14:59:07.413Z,93566.91
2022-11-23T15:01:38.035Z,93570.94
2022-11-23T15:04:24.612Z,93570.78
2022-11-23T15:07:04.332Z,93572.69
2022-11-23T15:09:46.429Z,93576.88
2022-11-23T15:12:42.853Z,93576.13
2022-11-23T15:15:21.123Z,93579.19
2022-11-23T15:17:55.257Z,93583.44
2022-11-23T15:20:30.416Z,93577.06
2022-11-23T15:23:00.207Z,93580.09
2022-11-23T15:25:30.136Z,93584.09
2022-11-23T15:27:59.786Z,93583.38
2022-11-23T15:30:30.938Z,93584.75
2022-11-23T15:33:02.852Z,93581.63
2022-11-23T15:35:36.770Z,93571.31
2022-11-23T15:38:23.231Z,93586.13
2022-11-23T15:40:53.699Z,93584.16
2022-11-23T15:43:23.336Z,93577.53
2022-11-23T15:46:06.672Z,93586.81
2022-11-23T15:48:37.430Z,93585.25
2022-11-23T15:51:26.809Z,93590.78
2022-11-23T15:53:55.847Z,93589.38
2022-11-23T15:56:29.790Z,93588.22
2022-11-23T15:59:00.328Z,93595.28
2022-11-23T16:01:29.901Z,93590.78
2022-11-23T16:04:03.792Z,93591.94
2022-11-23T16:06:56.370Z,93596.97
2022-11-23T16:09:51.212Z,93609.22
2022-11-23T16:12:28.625Z,93607.69
2022-11-23T16:14:59.517Z,93599.72
2022-11-23T16:17:30.566Z,93605.03
2022-11-23T16:20:04.316Z,93611.66
2022-11-23T16:22:37.527Z,93628.13
2022-11-23T16:25:09.730Z,93619.16
2022-11-23T16:27:39.744Z,93618.16
2022-11-23T16:30:25.481Z,93620.06
2022-11-23T16:32:55.017Z,93625.13
2022-11-23T16:35:24.470Z,93625.91
2022-11-23T16:37:55.664Z,93630.50
2022-11-23T16:40:25.131Z,93630.50
2022-11-23T16:42:55.309Z,93636.88
2022-11-23T16:45:25.017Z,93638.19
2022-11-23T16:47:56.075Z,93638.25
2022-11-23T16:50:28.768Z,93635.53
2022-11-23T16:53:02.592Z,93637.91
2022-11-23T16:55:32.682Z,93641.91
2022-11-23T16:58:02.206Z,93644.81
2022-11-23T17:00:33.071Z,93648.53
2022-11-23T17:03:02.296Z,93646.13
2022-11-23T17:05:31.586Z,93644.28
2022-11-23T17:08:02.189Z,93651.72
2022-11-23T17:10:32.162Z,93651.19
2022-11-23T17:13:02.492Z,93657.00
2022-11-23T17:15:35.926Z,93660.19
2022-11-23T17:18:06.237Z,93664.97
2022-11-23T17:20:37.550Z,93664.16
2022-11-23T17:23:08.745Z,93668.63
2022-11-23T17:25:39.208Z,93665.47
2022-11-23T17:28:24.215Z,93671.28
2022-11-23T17:31:12.336Z,93679.81
2022-11-23T17:33:41.694Z,93682.25
2022-11-23T17:36:12.288Z,93685.19
2022-11-23T17:38:47.786Z,93689.94
2022-11-23T17:41:22.379Z,93694.75
2022-11-23T17:43:51.688Z,93683.88
2022-11-23T17:46:24.089Z,93697.16
2022-11-23T17:48:57.515Z,93703.28
2022-11-23T17:51:28.645Z,93700.94
2022-11-23T17:54:02.082Z,93698.56
2022-11-23T17:56:31.399Z,93697.50
2022-11-23T17:59:00.848Z,93698.59
2022-11-23T18:01:30.555Z,93694.88
2022-11-23T18:04:01.436Z,93698.63
2022-11-23T18:06:31.003Z,93698.38
2022-11-23T18:09:01.634Z,93697.88
2022-11-23T18:11:31.093Z,93704.00
2022-11-23T18:14:01.324Z,93688.66
2022-11-23T18:16:31.188Z,93697.66
2022-11-23T18:19:01.175Z,93696.84
2022-11-23T18:21:31.962Z,93704.03
2022-11-23T18:24:04.683Z,93707.19
2022-11-23T18:26:35.244Z,93706.41
2022-11-23T18:29:05.347Z,93713.81
2022-11-23T18:31:35.140Z,93713.28
2022-11-23T18:34:05.855Z,93711.44
2022-11-23T18:36:35.364Z,93713.56
2022-11-23T18:39:06.731Z,93723.59
2022-11-23T18:41:37.143Z,93722.56
2022-11-23T18:44:06.638Z,93715.94
2022-11-23T18:46:36.169Z,93717.81
2022-11-23T18:49:05.508Z,93715.91
2022-11-23T18:51:34.883Z,93719.91
2022-11-23T18:54:05.890Z,93721.47
2022-11-23T18:56:35.245Z,93727.97
2022-11-23T18:59:04.638Z,93721.91
2022-11-23T19:01:33.747Z,93725.84
2022-11-23T19:04:03.356Z,93725.06
2022-11-23T19:06:32.995Z,93725.34
2022-11-23T19:09:03.257Z,93726.72
2022-11-23T19:11:34.023Z,93728.31
2022-11-23T19:14:03.674Z,93729.59
2022-11-23T19:16:33.811Z,93725.63
2022-11-23T19:19:05.406Z,93737.56
2022-11-23T19:21:36.917Z,93735.72
2022-11-23T19:24:08.217Z,93741.00
2022-11-23T19:26:39.460Z,93735.25
2022-11-23T19:29:08.789Z,93741.88
2022-11-23T19:31:38.119Z,93738.97
2022-11-23T19:34:10.767Z,93738.41
2022-11-23T19:36:41.017Z,93743.44
2022-11-23T19:39:10.486Z,93742.13
2022-11-23T19:41:42.667Z,93736.28
2022-11-23T19:44:12.023Z,93737.88
2022-11-23T19:46:41.412Z,93746.63
2022-11-23T19:49:10.933Z,93743.19
2022-11-23T19:51:44.344Z,93743.44
2022-11-23T19:54:13.787Z,93742.63
2022-11-23T19:56:47.213Z,93745.78
2022-11-23T19:59:16.629Z,93745.25
2022-11-23T20:01:46.027Z,93755.78
2022-11-23T20:04:15.507Z,93749.16
2022-11-23T20:06:45.527Z,93754.97
2022-11-23T20:09:19.714Z,93757.88
2022-11-23T20:11:51.820Z,93762.84
2022-11-23T20:14:21.587Z,93768.19
2022-11-23T20:17:11.953Z,93764.19
2022-11-23T20:19:41.302Z,93766.53
2022-11-23T20:22:15.910Z,93771.78
2022-11-23T20:24:45.447Z,93766.75
2022-11-23T20:27:21.721Z,93769.09
2022-11-23T20:29:57.330Z,93765.13
2022-11-23T20:32:51.968Z,93771.44
2022-11-23T20:35:21.642Z,93771.41
2022-11-23T20:37:50.977Z,93775.09
2022-11-23T20:40:21.163Z,93774.00
2022-11-23T20:42:52.124Z,93774.75
2022-11-23T20:45:21.795Z,93779.16
2022-11-23T20:47:54.485Z,93782.91
2022-11-23T20:50:25.643Z,93778.19
2022-11-23T20:52:54.977Z,93780.06
2022-11-23T20:55:24.763Z,93779.84
2022-11-23T20:57:56.336Z,93782.53
2022-11-23T21:00:25.965Z,93782.09
2022-11-23T21:02:57.292Z,93785.78
2022-11-23T21:05:27.210Z,93781.03
2022-11-23T21:07:56.791Z,93781.47
2022-11-23T21:10:44.069Z,93785.38
2022-11-23T21:13:48.661Z,93788.00
2022-11-23T21:16:19.478Z,93783.44
2022-11-23T21:18:48.920Z,93786.84
2022-11-23T21:21:18.214Z,93785.00
2022-11-23T21:23:51.126Z,93790.28
2022-11-23T21:26:21.776Z,93794.97
2022-11-23T21:28:52.320Z,93794.13
2022-11-23T21:31:21.627Z,93802.84
2022-11-23T21:33:53.957Z,93800.66
2022-11-23T21:36:24.541Z,93794.00
2022-11-23T21:38:53.681Z,93798.72
2022-11-23T21:41:23.062Z,93800.69
2022-11-23T21:43:55.905Z,93797.75
2022-11-23T21:46:25.652Z,93792.59
2022-11-23T21:48:55.850Z,93793.34
2022-11-23T21:51:27.475Z,93794.31
2022-11-23T21:53:57.584Z,93787.16
2022-11-23T21:56:27.819Z,93800.25
2022-11-23T21:59:02.383Z,93798.91
2022-11-23T22:01:34.001Z,93799.00
2022-11-23T22:04:06.312Z,93796.59
2022-11-23T22:06:39.819Z,93790.97
2022-11-23T22:09:10.731Z,93781.47
2022-11-23T22:11:41.833Z,93790.41
2022-11-23T22:14:14.468Z,93782.69
2022-11-23T22:16:44.794Z,93790.91
2022-11-23T22:19:15.662Z,93796.22
2022-11-23T22:21:46.369Z,93795.69
2022-11-23T22:24:17.008Z,93806.06
2022-11-23T22:26:46.838Z,93804.59
2022-11-23T22:29:17.668Z,93806.94
2022-11-23T22:31:47.280Z,93807.56
2022-11-23T22:34:16.836Z,93811.88
2022-11-23T22:36:45.936Z,93815.09
2022-11-23T22:39:15.348Z,93813.25
2022-11-23T22:42:04.848Z,93825.00
2022-11-23T22:44:37.260Z,93821.56
2022-11-23T22:47:06.573Z,93814.63
2022-11-23T22:49:36.328Z,93818.94
2022-11-23T22:52:05.732Z,93811.50
2022-11-23T22:54:44.601Z,93819.50
2022-11-23T22:57:14.613Z,93824.19
2022-11-23T22:59:45.396Z,93819.25
2022-11-23T23:02:14.624Z,93816.06
2022-11-23T23:04:44.035Z,93812.53
2022-11-23T23:07:13.450Z,93804.19
2022-11-23T23:09:42.639Z,93812.63
2022-11-23T23:12:11.783Z,93810.19
2022-11-23T23:14:41.160Z,93815.69
2022-11-23T23:17:12.142Z,93816.38
2022-11-23T23:19:41.426Z,93820.28
2022-11-23T23:22:10.599Z,93820.03
2022-11-23T23:24:39.894Z,93828.91
2022-11-23T23:27:09.098Z,93827.44
2022-11-23T23:29:38.659Z,93826.59
2022-11-23T23:32:08.280Z,93819.91
2022-11-23T23:34:38.938Z,93818.06
2022-11-23T23:37:08.061Z,93822.31
2022-11-23T23:39:37.185Z,93826.38
2022-11-23T23:42:07.813Z,93819.44
2022-11-23T23:44:36.985Z,93818.81
2022-11-23T23:47:06.355Z,93828.22
2022-11-23T23:49:35.696Z,93825.50
2022-11-23T23:52:07.007Z,93826.31
2022-11-23T23:54:36.331Z,93829.41
2022-11-23T23:57:05.714Z,93821.50
2022-11-23T23:59:34.886Z,93831.13
